sensor_id;sensor_type;location;lat;lon;timestamp;temperature;humidity
27671;DHT22;15077;49.704;9.908;2023-02-07T00:00:39;3.40;66.30
27671;DHT22;15077;49.704;9.908;2023-02-07T00:03:04;3.40;66.10
27671;DHT22;15077;49.704;9.908;2023-02-07T00:05:30;3.40;65.90
27671;DHT22;15077;49.704;9.908;2023-02-07T00:07:56;3.30;65.80
27671;DHT22;15077;49.704;9.908;2023-02-07T00:10:22;3.30;65.60
27671;DHT22;15077;49.704;9.908;2023-02-07T00:12:47;3.30;65.60
27671;DHT22;15077;49.704;9.908;2023-02-07T00:15:14;3.20;65.60
27671;DHT22;15077;49.704;9.908;2023-02-07T00:17:41;3.20;65.60
27671;DHT22;15077;49.704;9.908;2023-02-07T00:20:07;3.20;65.50
27671;DHT22;15077;49.704;9.908;2023-02-07T00:22:33;3.10;65.20
27671;DHT22;15077;49.704;9.908;2023-02-07T00:24:59;3.10;65.50
27671;DHT22;15077;49.704;9.908;2023-02-07T00:27:24;3.00;65.70
27671;DHT22;15077;49.704;9.908;2023-02-07T00:29:50;3.00;65.80
27671;DHT22;15077;49.704;9.908;2023-02-07T00:32:16;3.00;66.00
27671;DHT22;15077;49.704;9.908;2023-02-07T00:34:44;3.00;65.70
27671;DHT22;15077;49.704;9.908;2023-02-07T00:37:11;3.00;65.80
27671;DHT22;15077;49.704;9.908;2023-02-07T00:39:37;2.90;65.90
27671;DHT22;15077;49.704;9.908;2023-02-07T00:42:04;2.90;66.00
27671;DHT22;15077;49.704;9.908;2023-02-07T00:44:30;2.90;65.90
27671;DHT22;15077;49.704;9.908;2023-02-07T00:46:57;2.80;66.00
27671;DHT22;15077;49.704;9.908;2023-02-07T00:49:23;2.80;66.10
27671;DHT22;15077;49.704;9.908;2023-02-07T00:51:50;2.80;66.30
27671;DHT22;15077;49.704;9.908;2023-02-07T00:54:16;2.80;66.40
27671;DHT22;15077;49.704;9.908;2023-02-07T00:56:42;2.70;66.40
27671;DHT22;15077;49.704;9.908;2023-02-07T00:59:07;2.80;66.50
27671;DHT22;15077;49.704;9.908;2023-02-07T01:01:33;2.70;66.50
27671;DHT22;15077;49.704;9.908;2023-02-07T01:04:00;2.70;66.50
27671;DHT22;15077;49.704;9.908;2023-02-07T01:06:26;2.70;66.20
27671;DHT22;15077;49.704;9.908;2023-02-07T01:08:58;2.70;66.20
27671;DHT22;15077;49.704;9.908;2023-02-07T01:11:26;2.70;66.30
27671;DHT22;15077;49.704;9.908;2023-02-07T01:13:52;2.60;66.20
27671;DHT22;15077;49.704;9.908;2023-02-07T01:16:24;2.60;66.30
27671;DHT22;15077;49.704;9.908;2023-02-07T01:19:01;2.50;66.30
27671;DHT22;15077;49.704;9.908;2023-02-07T01:21:32;2.50;66.40
27671;DHT22;15077;49.704;9.908;2023-02-07T01:23:58;2.40;66.40
27671;DHT22;15077;49.704;9.908;2023-02-07T01:26:25;2.40;67.10
27671;DHT22;15077;49.704;9.908;2023-02-07T01:28:53;2.30;66.50
27671;DHT22;15077;49.704;9.908;2023-02-07T01:31:21;2.30;66.50
27671;DHT22;15077;49.704;9.908;2023-02-07T01:33:53;2.30;66.70
27671;DHT22;15077;49.704;9.908;2023-02-07T01:36:20;2.20;66.80
27671;DHT22;15077;49.704;9.908;2023-02-07T01:38:46;2.20;66.90
27671;DHT22;15077;49.704;9.908;2023-02-07T01:41:12;2.20;66.90
27671;DHT22;15077;49.704;9.908;2023-02-07T01:46:26;2.20;67.00
27671;DHT22;15077;49.704;9.908;2023-02-07T01:48:54;2.20;67.10
27671;DHT22;15077;49.704;9.908;2023-02-07T01:51:23;2.20;67.40
27671;DHT22;15077;49.704;9.908;2023-02-07T01:53:53;2.20;67.10
27671;DHT22;15077;49.704;9.908;2023-02-07T01:56:22;2.30;67.10
27671;DHT22;15077;49.704;9.908;2023-02-07T01:58:50;2.20;66.90
27671;DHT22;15077;49.704;9.908;2023-02-07T02:01:21;2.30;67.00
27671;DHT22;15077;49.704;9.908;2023-02-07T02:03:49;2.30;67.00
27671;DHT22;15077;49.704;9.908;2023-02-07T02:06:18;2.30;67.00
27671;DHT22;15077;49.704;9.908;2023-02-07T02:08:45;2.30;66.60
27671;DHT22;15077;49.704;9.908;2023-02-07T02:19:59;2.20;66.20
27671;DHT22;15077;49.704;9.908;2023-02-07T02:28:23;2.00;66.30
27671;DHT22;15077;49.704;9.908;2023-02-07T02:33:54;1.90;66.40
27671;DHT22;15077;49.704;9.908;2023-02-07T02:36:37;1.90;66.50
27671;DHT22;15077;49.704;9.908;2023-02-07T02:42:27;1.80;66.40
27671;DHT22;15077;49.704;9.908;2023-02-07T02:45:00;1.80;66.50
27671;DHT22;15077;49.704;9.908;2023-02-07T02:47:33;1.80;66.80
27671;DHT22;15077;49.704;9.908;2023-02-07T02:50:01;1.80;66.80
27671;DHT22;15077;49.704;9.908;2023-02-07T02:52:30;1.80;66.90
27671;DHT22;15077;49.704;9.908;2023-02-07T02:54:56;1.80;66.80
27671;DHT22;15077;49.704;9.908;2023-02-07T02:57:49;1.80;66.90
27671;DHT22;15077;49.704;9.908;2023-02-07T03:06:47;1.90;67.10
27671;DHT22;15077;49.704;9.908;2023-02-07T03:12:16;1.90;67.10
27671;DHT22;15077;49.704;9.908;2023-02-07T03:15:01;2.00;67.10
27671;DHT22;15077;49.704;9.908;2023-02-07T03:17:45;2.00;67.10
27671;DHT22;15077;49.704;9.908;2023-02-07T03:20:38;2.00;67.00
27671;DHT22;15077;49.704;9.908;2023-02-07T03:23:13;2.00;66.80
27671;DHT22;15077;49.704;9.908;2023-02-07T03:25:43;2.00;66.60
27671;DHT22;15077;49.704;9.908;2023-02-07T03:28:13;2.00;66.30
27671;DHT22;15077;49.704;9.908;2023-02-07T03:30:41;2.00;66.20
27671;DHT22;15077;49.704;9.908;2023-02-07T03:33:13;1.90;66.10
27671;DHT22;15077;49.704;9.908;2023-02-07T03:35:52;1.90;66.00
27671;DHT22;15077;49.704;9.908;2023-02-07T03:38:27;1.80;66.10
27671;DHT22;15077;49.704;9.908;2023-02-07T03:40:58;1.80;66.30
27671;DHT22;15077;49.704;9.908;2023-02-07T03:43:31;1.80;66.40
27671;DHT22;15077;49.704;9.908;2023-02-07T03:45:59;1.70;66.50
27671;DHT22;15077;49.704;9.908;2023-02-07T03:48:25;1.70;66.60
27671;DHT22;15077;49.704;9.908;2023-02-07T03:50:53;1.80;66.70
27671;DHT22;15077;49.704;9.908;2023-02-07T03:53:21;1.80;66.80
27671;DHT22;15077;49.704;9.908;2023-02-07T03:55:47;1.70;66.70
27671;DHT22;15077;49.704;9.908;2023-02-07T03:58:17;1.80;66.70
27671;DHT22;15077;49.704;9.908;2023-02-07T04:00:44;1.80;66.70
27671;DHT22;15077;49.704;9.908;2023-02-07T04:03:12;1.80;66.60
27671;DHT22;15077;49.704;9.908;2023-02-07T04:05:37;1.80;66.50
27671;DHT22;15077;49.704;9.908;2023-02-07T04:08:03;1.80;66.50
27671;DHT22;15077;49.704;9.908;2023-02-07T04:10:29;1.80;66.40
27671;DHT22;15077;49.704;9.908;2023-02-07T04:12:55;1.70;66.30
27671;DHT22;15077;49.704;9.908;2023-02-07T04:15:21;1.70;66.20
27671;DHT22;15077;49.704;9.908;2023-02-07T04:17:47;1.70;66.20
27671;DHT22;15077;49.704;9.908;2023-02-07T04:20:12;1.70;66.10
27671;DHT22;15077;49.704;9.908;2023-02-07T04:22:38;1.70;65.90
27671;DHT22;15077;49.704;9.908;2023-02-07T04:25:04;1.60;65.90
27671;DHT22;15077;49.704;9.908;2023-02-07T04:27:30;1.60;66.00
27671;DHT22;15077;49.704;9.908;2023-02-07T04:29:56;1.50;65.90
27671;DHT22;15077;49.704;9.908;2023-02-07T04:32:25;1.50;65.80
27671;DHT22;15077;49.704;9.908;2023-02-07T04:34:51;1.50;65.90
27671;DHT22;15077;49.704;9.908;2023-02-07T04:37:17;1.40;66.00
27671;DHT22;15077;49.704;9.908;2023-02-07T04:39:43;1.40;66.10
27671;DHT22;15077;49.704;9.908;2023-02-07T04:42:09;1.40;66.10
27671;DHT22;15077;49.704;9.908;2023-02-07T04:44:35;1.30;66.20
27671;DHT22;15077;49.704;9.908;2023-02-07T04:47:00;1.30;66.30
27671;DHT22;15077;49.704;9.908;2023-02-07T04:49:26;1.30;66.40
27671;DHT22;15077;49.704;9.908;2023-02-07T04:51:52;1.30;66.40
27671;DHT22;15077;49.704;9.908;2023-02-07T04:54:18;1.30;66.50
27671;DHT22;15077;49.704;9.908;2023-02-07T04:56:43;1.30;66.50
27671;DHT22;15077;49.704;9.908;2023-02-07T04:59:09;1.30;66.50
27671;DHT22;15077;49.704;9.908;2023-02-07T05:01:35;1.40;66.50
27671;DHT22;15077;49.704;9.908;2023-02-07T05:04:01;1.30;66.40
27671;DHT22;15077;49.704;9.908;2023-02-07T05:06:27;1.30;66.30
27671;DHT22;15077;49.704;9.908;2023-02-07T05:08:52;1.30;66.20
27671;DHT22;15077;49.704;9.908;2023-02-07T05:11:18;1.30;66.20
27671;DHT22;15077;49.704;9.908;2023-02-07T05:13:44;1.30;66.30
27671;DHT22;15077;49.704;9.908;2023-02-07T05:16:10;1.30;66.30
27671;DHT22;15077;49.704;9.908;2023-02-07T05:18:35;1.30;66.30
27671;DHT22;15077;49.704;9.908;2023-02-07T05:21:01;1.30;66.30
27671;DHT22;15077;49.704;9.908;2023-02-07T05:23:27;1.30;66.30
27671;DHT22;15077;49.704;9.908;2023-02-07T05:25:53;1.30;66.20
27671;DHT22;15077;49.704;9.908;2023-02-07T05:28:19;1.30;66.10
27671;DHT22;15077;49.704;9.908;2023-02-07T05:30:44;1.20;65.80
27671;DHT22;15077;49.704;9.908;2023-02-07T05:33:10;1.20;65.70
27671;DHT22;15077;49.704;9.908;2023-02-07T05:35:42;1.10;65.40
27671;DHT22;15077;49.704;9.908;2023-02-07T05:38:14;1.10;65.50
27671;DHT22;15077;49.704;9.908;2023-02-07T05:40:42;1.00;65.60
27671;DHT22;15077;49.704;9.908;2023-02-07T05:43:09;0.90;65.70
27671;DHT22;15077;49.704;9.908;2023-02-07T05:45:36;0.90;65.80
27671;DHT22;15077;49.704;9.908;2023-02-07T05:48:03;0.80;65.80
27671;DHT22;15077;49.704;9.908;2023-02-07T05:50:29;0.70;65.90
27671;DHT22;15077;49.704;9.908;2023-02-07T05:52:55;0.70;66.00
27671;DHT22;15077;49.704;9.908;2023-02-07T05:55:21;0.70;66.00
27671;DHT22;15077;49.704;9.908;2023-02-07T05:57:46;0.60;65.90
27671;DHT22;15077;49.704;9.908;2023-02-07T06:00:14;0.60;66.00
27671;DHT22;15077;49.704;9.908;2023-02-07T06:02:43;0.50;66.00
27671;DHT22;15077;49.704;9.908;2023-02-07T06:05:16;0.50;66.20
27671;DHT22;15077;49.704;9.908;2023-02-07T06:07:44;0.40;66.20
27671;DHT22;15077;49.704;9.908;2023-02-07T06:10:11;0.40;66.40
27671;DHT22;15077;49.704;9.908;2023-02-07T06:12:37;0.40;66.50
27671;DHT22;15077;49.704;9.908;2023-02-07T06:15:04;0.40;66.50
27671;DHT22;15077;49.704;9.908;2023-02-07T06:17:30;0.40;66.50
27671;DHT22;15077;49.704;9.908;2023-02-07T06:19:55;0.40;66.60
27671;DHT22;15077;49.704;9.908;2023-02-07T06:22:21;0.50;66.70
27671;DHT22;15077;49.704;9.908;2023-02-07T06:24:47;0.50;66.70
27671;DHT22;15077;49.704;9.908;2023-02-07T06:27:13;0.50;66.70
27671;DHT22;15077;49.704;9.908;2023-02-07T06:29:39;0.50;66.60
27671;DHT22;15077;49.704;9.908;2023-02-07T06:32:04;0.50;66.50
27671;DHT22;15077;49.704;9.908;2023-02-07T06:34:30;0.50;66.40
27671;DHT22;15077;49.704;9.908;2023-02-07T06:36:56;0.50;66.20
27671;DHT22;15077;49.704;9.908;2023-02-07T06:39:22;0.50;66.20
27671;DHT22;15077;49.704;9.908;2023-02-07T06:41:48;0.50;66.10
27671;DHT22;15077;49.704;9.908;2023-02-07T06:44:14;0.40;66.00
27671;DHT22;15077;49.704;9.908;2023-02-07T06:46:39;0.40;66.00
27671;DHT22;15077;49.704;9.908;2023-02-07T06:49:05;0.30;65.90
27671;DHT22;15077;49.704;9.908;2023-02-07T06:51:31;0.30;66.00
27671;DHT22;15077;49.704;9.908;2023-02-07T06:53:57;0.20;66.00
27671;DHT22;15077;49.704;9.908;2023-02-07T06:56:24;0.20;66.10
27671;DHT22;15077;49.704;9.908;2023-02-07T06:58:49;0.20;66.10
27671;DHT22;15077;49.704;9.908;2023-02-07T07:01:15;0.10;66.10
27671;DHT22;15077;49.704;9.908;2023-02-07T07:03:47;0.10;66.20
27671;DHT22;15077;49.704;9.908;2023-02-07T07:06:13;0.00;66.30
27671;DHT22;15077;49.704;9.908;2023-02-07T07:08:39;0.00;66.60
27671;DHT22;15077;49.704;9.908;2023-02-07T07:11:05;-0.10;66.70
27671;DHT22;15077;49.704;9.908;2023-02-07T07:13:30;-0.10;66.90
27671;DHT22;15077;49.704;9.908;2023-02-07T07:15:56;-0.20;67.00
27671;DHT22;15077;49.704;9.908;2023-02-07T07:18:22;-0.20;67.00
27671;DHT22;15077;49.704;9.908;2023-02-07T07:20:52;-0.20;67.20
27671;DHT22;15077;49.704;9.908;2023-02-07T07:23:19;-0.20;67.20
27671;DHT22;15077;49.704;9.908;2023-02-07T07:25:45;-0.20;67.30
27671;DHT22;15077;49.704;9.908;2023-02-07T07:28:11;-0.20;67.40
27671;DHT22;15077;49.704;9.908;2023-02-07T07:30:37;-0.20;67.40
27671;DHT22;15077;49.704;9.908;2023-02-07T07:33:04;-0.20;67.50
27671;DHT22;15077;49.704;9.908;2023-02-07T07:35:30;-0.10;67.50
27671;DHT22;15077;49.704;9.908;2023-02-07T07:37:55;-0.10;67.50
27671;DHT22;15077;49.704;9.908;2023-02-07T07:40:21;-0.10;67.40
27671;DHT22;15077;49.704;9.908;2023-02-07T07:42:47;0.00;67.50
27671;DHT22;15077;49.704;9.908;2023-02-07T07:45:12;0.00;67.40
27671;DHT22;15077;49.704;9.908;2023-02-07T07:47:38;0.10;67.50
27671;DHT22;15077;49.704;9.908;2023-02-07T07:50:05;0.10;67.50
27671;DHT22;15077;49.704;9.908;2023-02-07T07:52:31;0.10;67.50
27671;DHT22;15077;49.704;9.908;2023-02-07T07:54:57;0.20;67.50
27671;DHT22;15077;49.704;9.908;2023-02-07T07:57:23;0.20;67.40
27671;DHT22;15077;49.704;9.908;2023-02-07T07:59:55;0.20;67.40
27671;DHT22;15077;49.704;9.908;2023-02-07T08:02:22;0.20;67.50
27671;DHT22;15077;49.704;9.908;2023-02-07T08:04:50;0.20;67.50
27671;DHT22;15077;49.704;9.908;2023-02-07T08:07:16;0.30;67.60
27671;DHT22;15077;49.704;9.908;2023-02-07T08:09:42;0.30;67.70
27671;DHT22;15077;49.704;9.908;2023-02-07T08:12:08;0.30;67.80
27671;DHT22;15077;49.704;9.908;2023-02-07T08:14:33;0.30;67.90
27671;DHT22;15077;49.704;9.908;2023-02-07T08:16:59;0.30;67.90
27671;DHT22;15077;49.704;9.908;2023-02-07T08:19:25;0.30;68.00
27671;DHT22;15077;49.704;9.908;2023-02-07T08:21:51;0.30;68.10
27671;DHT22;15077;49.704;9.908;2023-02-07T08:24:17;0.40;68.10
27671;DHT22;15077;49.704;9.908;2023-02-07T08:26:42;0.40;68.10
27671;DHT22;15077;49.704;9.908;2023-02-07T08:29:08;0.40;68.20
27671;DHT22;15077;49.704;9.908;2023-02-07T08:31:34;0.40;68.30
27671;DHT22;15077;49.704;9.908;2023-02-07T08:34:00;0.50;68.40
27671;DHT22;15077;49.704;9.908;2023-02-07T08:36:25;0.50;68.20
27671;DHT22;15077;49.704;9.908;2023-02-07T08:38:51;0.50;68.10
27671;DHT22;15077;49.704;9.908;2023-02-07T08:41:17;0.50;68.00
27671;DHT22;15077;49.704;9.908;2023-02-07T08:43:43;0.60;67.90
27671;DHT22;15077;49.704;9.908;2023-02-07T08:46:08;0.60;68.00
27671;DHT22;15077;49.704;9.908;2023-02-07T08:48:34;0.60;68.00
27671;DHT22;15077;49.704;9.908;2023-02-07T08:51:04;0.70;68.20
27671;DHT22;15077;49.704;9.908;2023-02-07T08:53:32;0.70;68.00
27671;DHT22;15077;49.704;9.908;2023-02-07T08:55:58;0.80;67.90
27671;DHT22;15077;49.704;9.908;2023-02-07T08:58:24;0.80;67.70
27671;DHT22;15077;49.704;9.908;2023-02-07T09:00:49;0.80;67.80
27671;DHT22;15077;49.704;9.908;2023-02-07T09:03:15;0.80;67.80
27671;DHT22;15077;49.704;9.908;2023-02-07T09:05:41;0.80;67.70
27671;DHT22;15077;49.704;9.908;2023-02-07T09:08:07;0.80;67.60
27671;DHT22;15077;49.704;9.908;2023-02-07T09:10:33;0.90;67.80
27671;DHT22;15077;49.704;9.908;2023-02-07T09:12:59;0.90;67.90
27671;DHT22;15077;49.704;9.908;2023-02-07T09:15:24;0.90;68.40
27671;DHT22;15077;49.704;9.908;2023-02-07T09:17:50;1.00;67.90
27671;DHT22;15077;49.704;9.908;2023-02-07T09:20:16;1.00;67.70
27671;DHT22;15077;49.704;9.908;2023-02-07T09:22:42;1.10;67.40
27671;DHT22;15077;49.704;9.908;2023-02-07T09:25:27;1.10;67.50
27671;DHT22;15077;49.704;9.908;2023-02-07T09:27:53;1.20;67.40
27671;DHT22;15077;49.704;9.908;2023-02-07T09:30:20;1.20;67.20
27671;DHT22;15077;49.704;9.908;2023-02-07T09:32:46;1.30;66.90
27671;DHT22;15077;49.704;9.908;2023-02-07T09:35:12;1.30;66.70
27671;DHT22;15077;49.704;9.908;2023-02-07T09:37:38;1.40;66.60
27671;DHT22;15077;49.704;9.908;2023-02-07T09:40:04;1.50;66.90
27671;DHT22;15077;49.704;9.908;2023-02-07T09:42:45;1.50;66.80
27671;DHT22;15077;49.704;9.908;2023-02-07T09:45:20;1.60;66.60
27671;DHT22;15077;49.704;9.908;2023-02-07T09:47:53;1.60;66.40
27671;DHT22;15077;49.704;9.908;2023-02-07T09:50:33;1.70;66.40
27671;DHT22;15077;49.704;9.908;2023-02-07T09:53:09;1.80;66.30
27671;DHT22;15077;49.704;9.908;2023-02-07T09:55:59;1.90;65.80
27671;DHT22;15077;49.704;9.908;2023-02-07T09:58:31;1.90;65.30
27671;DHT22;15077;49.704;9.908;2023-02-07T10:01:14;2.00;65.60
27671;DHT22;15077;49.704;9.908;2023-02-07T10:06:34;2.10;66.00
27671;DHT22;15077;49.704;9.908;2023-02-07T10:09:01;2.20;65.80
27671;DHT22;15077;49.704;9.908;2023-02-07T10:11:48;2.30;65.70
27671;DHT22;15077;49.704;9.908;2023-02-07T10:23:22;3.30;65.20
27671;DHT22;15077;49.704;9.908;2023-02-07T10:31:38;4.40;63.50
27671;DHT22;15077;49.704;9.908;2023-02-07T10:34:13;4.60;63.40
27671;DHT22;15077;49.704;9.908;2023-02-07T10:36:43;4.90;63.50
27671;DHT22;15077;49.704;9.908;2023-02-07T10:39:32;5.10;64.40
27671;DHT22;15077;49.704;9.908;2023-02-07T10:41:58;5.40;62.50
27671;DHT22;15077;49.704;9.908;2023-02-07T10:44:24;5.60;62.20
27671;DHT22;15077;49.704;9.908;2023-02-07T10:47:04;5.80;63.30
27671;DHT22;15077;49.704;9.908;2023-02-07T10:49:35;6.10;62.60
27671;DHT22;15077;49.704;9.908;2023-02-07T10:52:12;6.30;62.30
27671;DHT22;15077;49.704;9.908;2023-02-07T10:54:59;6.50;61.10
27671;DHT22;15077;49.704;9.908;2023-02-07T10:57:27;6.80;61.60
27671;DHT22;15077;49.704;9.908;2023-02-07T11:00:20;7.00;60.10
27671;DHT22;15077;49.704;9.908;2023-02-07T11:03:03;7.20;59.40
27671;DHT22;15077;49.704;9.908;2023-02-07T11:05:33;7.30;59.90
27671;DHT22;15077;49.704;9.908;2023-02-07T11:10:41;7.50;59.20
27671;DHT22;15077;49.704;9.908;2023-02-07T11:13:13;7.70;57.80
27671;DHT22;15077;49.704;9.908;2023-02-07T11:15:59;7.80;57.60
27671;DHT22;15077;49.704;9.908;2023-02-07T11:18:39;7.80;57.20
27671;DHT22;15077;49.704;9.908;2023-02-07T11:21:39;7.90;56.80
27671;DHT22;15077;49.704;9.908;2023-02-07T11:24:13;8.00;57.30
27671;DHT22;15077;49.704;9.908;2023-02-07T11:29:54;8.00;56.10
27671;DHT22;15077;49.704;9.908;2023-02-07T11:32:23;8.10;54.70
27671;DHT22;15077;49.704;9.908;2023-02-07T11:34:55;8.10;55.20
27671;DHT22;15077;49.704;9.908;2023-02-07T11:37:30;8.10;55.10
27671;DHT22;15077;49.704;9.908;2023-02-07T11:40:23;8.20;57.10
27671;DHT22;15077;49.704;9.908;2023-02-07T11:43:12;8.30;57.10
27671;DHT22;15077;49.704;9.908;2023-02-07T11:45:49;8.50;57.70
27671;DHT22;15077;49.704;9.908;2023-02-07T11:48:27;8.80;57.60
27671;DHT22;15077;49.704;9.908;2023-02-07T11:50:57;9.00;57.60
27671;DHT22;15077;49.704;9.908;2023-02-07T11:53:37;9.20;57.90
27671;DHT22;15077;49.704;9.908;2023-02-07T11:56:06;9.50;56.70
27671;DHT22;15077;49.704;9.908;2023-02-07T11:58:47;9.70;55.90
27671;DHT22;15077;49.704;9.908;2023-02-07T12:01:21;9.80;54.40
27671;DHT22;15077;49.704;9.908;2023-02-07T12:03:53;9.90;55.00
27671;DHT22;15077;49.704;9.908;2023-02-07T12:09:48;10.00;54.60
27671;DHT22;15077;49.704;9.908;2023-02-07T12:12:38;10.10;54.30
27671;DHT22;15077;49.704;9.908;2023-02-07T12:15:16;10.10;52.30
27671;DHT22;15077;49.704;9.908;2023-02-07T12:18:27;10.10;52.20
27671;DHT22;15077;49.704;9.908;2023-02-07T12:24:20;10.10;51.40
27671;DHT22;15077;49.704;9.908;2023-02-07T12:26:53;10.10;51.30
27671;DHT22;15077;49.704;9.908;2023-02-07T12:29:40;10.10;51.00
27671;DHT22;15077;49.704;9.908;2023-02-07T12:32:57;10.00;52.00
27671;DHT22;15077;49.704;9.908;2023-02-07T12:38:25;10.10;52.90
27671;DHT22;15077;49.704;9.908;2023-02-07T12:41:16;10.20;51.40
27671;DHT22;15077;49.704;9.908;2023-02-07T12:58:41;10.30;52.40
27671;DHT22;15077;49.704;9.908;2023-02-07T13:01:27;10.30;52.50
27671;DHT22;15077;49.704;9.908;2023-02-07T13:16:00;10.20;49.60
27671;DHT22;15077;49.704;9.908;2023-02-07T13:21:55;9.90;49.90
27671;DHT22;15077;49.704;9.908;2023-02-07T13:24:23;9.80;50.40
27671;DHT22;15077;49.704;9.908;2023-02-07T13:26:54;9.60;50.80
27671;DHT22;15077;49.704;9.908;2023-02-07T13:29:26;9.50;50.40
27671;DHT22;15077;49.704;9.908;2023-02-07T13:31:59;9.30;50.80
27671;DHT22;15077;49.704;9.908;2023-02-07T13:34:31;9.20;50.90
27671;DHT22;15077;49.704;9.908;2023-02-07T13:37:05;9.10;50.40
27671;DHT22;15077;49.704;9.908;2023-02-07T13:45:53;8.80;50.60
27671;DHT22;15077;49.704;9.908;2023-02-07T13:51:19;8.60;51.10
27671;DHT22;15077;49.704;9.908;2023-02-07T13:57:01;8.40;49.70
27671;DHT22;15077;49.704;9.908;2023-02-07T14:02:43;8.00;50.90
27671;DHT22;15077;49.704;9.908;2023-02-07T14:05:22;7.90;50.80
27671;DHT22;15077;49.704;9.908;2023-02-07T14:13:39;7.40;52.00
27671;DHT22;15077;49.704;9.908;2023-02-07T14:16:08;7.40;52.50
27671;DHT22;15077;49.704;9.908;2023-02-07T14:18:40;7.30;51.60
27671;DHT22;15077;49.704;9.908;2023-02-07T14:31:49;7.00;52.40
27671;DHT22;15077;49.704;9.908;2023-02-07T14:34:20;6.90;52.20
27671;DHT22;15077;49.704;9.908;2023-02-07T14:36:49;6.90;52.20
27671;DHT22;15077;49.704;9.908;2023-02-07T14:41:49;6.80;52.70
27671;DHT22;15077;49.704;9.908;2023-02-07T14:44:34;6.70;52.90
27671;DHT22;15077;49.704;9.908;2023-02-07T14:47:04;6.70;53.10
27671;DHT22;15077;49.704;9.908;2023-02-07T14:49:40;6.60;53.20
27671;DHT22;15077;49.704;9.908;2023-02-07T14:52:14;6.70;53.60
27671;DHT22;15077;49.704;9.908;2023-02-07T14:55:14;6.70;53.40
27671;DHT22;15077;49.704;9.908;2023-02-07T14:57:52;6.70;53.10
27671;DHT22;15077;49.704;9.908;2023-02-07T15:03:13;6.70;52.90
27671;DHT22;15077;49.704;9.908;2023-02-07T15:05:59;6.70;53.10
27671;DHT22;15077;49.704;9.908;2023-02-07T15:08:30;6.60;52.90
27671;DHT22;15077;49.704;9.908;2023-02-07T15:11:08;6.60;52.40
27671;DHT22;15077;49.704;9.908;2023-02-07T15:13:41;6.60;52.60
27671;DHT22;15077;49.704;9.908;2023-02-07T15:18:59;6.50;53.00
27671;DHT22;15077;49.704;9.908;2023-02-07T15:21:38;6.50;53.10
27671;DHT22;15077;49.704;9.908;2023-02-07T15:24:26;6.50;53.60
27671;DHT22;15077;49.704;9.908;2023-02-07T15:27:02;6.40;53.00
27671;DHT22;15077;49.704;9.908;2023-02-07T15:29:35;6.40;53.20
27671;DHT22;15077;49.704;9.908;2023-02-07T15:32:25;6.40;53.10
27671;DHT22;15077;49.704;9.908;2023-02-07T15:34:55;6.40;53.40
27671;DHT22;15077;49.704;9.908;2023-02-07T15:37:23;6.30;53.40
27671;DHT22;15077;49.704;9.908;2023-02-07T15:39:55;6.40;53.60
27671;DHT22;15077;49.704;9.908;2023-02-07T15:42:22;6.30;53.60
27671;DHT22;15077;49.704;9.908;2023-02-07T15:44:55;6.30;54.00
27671;DHT22;15077;49.704;9.908;2023-02-07T15:47:34;6.30;54.30
27671;DHT22;15077;49.704;9.908;2023-02-07T15:50:21;6.30;54.30
27671;DHT22;15077;49.704;9.908;2023-02-07T15:52:50;6.40;54.50
27671;DHT22;15077;49.704;9.908;2023-02-07T15:55:41;6.40;54.60
27671;DHT22;15077;49.704;9.908;2023-02-07T15:58:22;6.40;54.70
27671;DHT22;15077;49.704;9.908;2023-02-07T16:00:50;6.40;54.60
27671;DHT22;15077;49.704;9.908;2023-02-07T16:03:22;6.40;54.70
27671;DHT22;15077;49.704;9.908;2023-02-07T16:08:44;6.40;54.80
27671;DHT22;15077;49.704;9.908;2023-02-07T16:16:56;6.40;55.00
27671;DHT22;15077;49.704;9.908;2023-02-07T16:19:24;6.40;55.00
27671;DHT22;15077;49.704;9.908;2023-02-07T16:22:05;6.30;55.00
27671;DHT22;15077;49.704;9.908;2023-02-07T16:24:35;6.30;55.00
27671;DHT22;15077;49.704;9.908;2023-02-07T16:27:04;6.30;55.10
27671;DHT22;15077;49.704;9.908;2023-02-07T16:29:32;6.20;55.10
27671;DHT22;15077;49.704;9.908;2023-02-07T16:32:00;6.20;55.20
27671;DHT22;15077;49.704;9.908;2023-02-07T16:34:26;6.20;55.20
27671;DHT22;15077;49.704;9.908;2023-02-07T16:36:53;6.20;55.30
27671;DHT22;15077;49.704;9.908;2023-02-07T16:39:20;6.10;55.30
27671;DHT22;15077;49.704;9.908;2023-02-07T16:41:50;6.10;55.30
27671;DHT22;15077;49.704;9.908;2023-02-07T16:44:22;6.00;55.30
27671;DHT22;15077;49.704;9.908;2023-02-07T16:46:49;6.00;55.40
27671;DHT22;15077;49.704;9.908;2023-02-07T16:49:17;6.00;55.50
27671;DHT22;15077;49.704;9.908;2023-02-07T16:51:45;5.90;55.50
27671;DHT22;15077;49.704;9.908;2023-02-07T16:54:11;5.80;55.60
27671;DHT22;15077;49.704;9.908;2023-02-07T16:56:37;5.80;55.60
27671;DHT22;15077;49.704;9.908;2023-02-07T16:59:04;5.80;55.60
27671;DHT22;15077;49.704;9.908;2023-02-07T17:01:32;5.70;55.70
27671;DHT22;15077;49.704;9.908;2023-02-07T17:03:58;5.70;55.70
27671;DHT22;15077;49.704;9.908;2023-02-07T17:06:24;5.70;55.70
27671;DHT22;15077;49.704;9.908;2023-02-07T17:08:51;5.60;55.60
27671;DHT22;15077;49.704;9.908;2023-02-07T17:11:23;5.60;55.80
27671;DHT22;15077;49.704;9.908;2023-02-07T17:13:56;5.50;55.60
27671;DHT22;15077;49.704;9.908;2023-02-07T17:16:24;5.40;55.70
27671;DHT22;15077;49.704;9.908;2023-02-07T17:18:52;5.40;55.70
27671;DHT22;15077;49.704;9.908;2023-02-07T17:21:18;5.30;55.80
27671;DHT22;15077;49.704;9.908;2023-02-07T17:23:46;5.30;55.90
27671;DHT22;15077;49.704;9.908;2023-02-07T17:28:47;5.20;55.80
27671;DHT22;15077;49.704;9.908;2023-02-07T17:31:13;5.10;55.90
27671;DHT22;15077;49.704;9.908;2023-02-07T17:33:39;5.10;55.90
27671;DHT22;15077;49.704;9.908;2023-02-07T17:36:05;5.00;56.00
27671;DHT22;15077;49.704;9.908;2023-02-07T17:38:31;5.00;56.10
27671;DHT22;15077;49.704;9.908;2023-02-07T17:40:56;4.90;56.20
27671;DHT22;15077;49.704;9.908;2023-02-07T17:43:22;4.90;56.30
27671;DHT22;15077;49.704;9.908;2023-02-07T17:45:48;4.80;56.30
27671;DHT22;15077;49.704;9.908;2023-02-07T17:48:13;4.80;56.30
27671;DHT22;15077;49.704;9.908;2023-02-07T17:50:39;4.80;56.50
27671;DHT22;15077;49.704;9.908;2023-02-07T17:53:06;4.70;56.50
27671;DHT22;15077;49.704;9.908;2023-02-07T17:55:34;4.70;56.40
27671;DHT22;15077;49.704;9.908;2023-02-07T17:58:01;4.70;56.50
27671;DHT22;15077;49.704;9.908;2023-02-07T18:00:32;4.60;56.50
27671;DHT22;15077;49.704;9.908;2023-02-07T18:03:01;4.60;56.50
27671;DHT22;15077;49.704;9.908;2023-02-07T18:05:27;4.60;56.50
27671;DHT22;15077;49.704;9.908;2023-02-07T18:07:54;4.50;56.50
27671;DHT22;15077;49.704;9.908;2023-02-07T18:10:29;4.50;56.50
27671;DHT22;15077;49.704;9.908;2023-02-07T18:12:57;4.50;56.50
27671;DHT22;15077;49.704;9.908;2023-02-07T18:15:24;4.40;56.60
27671;DHT22;15077;49.704;9.908;2023-02-07T18:17:52;4.40;56.70
27671;DHT22;15077;49.704;9.908;2023-02-07T18:20:20;4.40;56.70
27671;DHT22;15077;49.704;9.908;2023-02-07T18:22:49;4.30;56.70
27671;DHT22;15077;49.704;9.908;2023-02-07T18:25:15;4.30;56.80
27671;DHT22;15077;49.704;9.908;2023-02-07T18:27:42;4.30;56.80
27671;DHT22;15077;49.704;9.908;2023-02-07T18:30:11;4.20;56.80